This is the latest recevied weather packets stored in our database for station/object N9DRW. If no packets are shown the sender has not sent any weather packets the latest 10 day(s).
| Time | Temp. | Humidity | Pressure | Rain* | Wind** | Luminosity | Snow |
|---|---|---|---|---|---|---|---|
| 1777554126 | 6.11° C | 82% | 0 hPa | 0 mm | - | - | - |
| 1777553526 | 5.56° C | 84% | 0 hPa | 0 mm | - | - | - |
| 1777552926 | 5.56° C | 86% | 0 hPa | 0 mm | - | - | - |
| 1777552326 | 5.56° C | 86% | 0 hPa | 0 mm | - | - | - |
| 1777551726 | 5° C | 86% | 0 hPa | 0 mm | - | - | - |
| 1777551126 | 4.44° C | 86% | 0 hPa | 0 mm | - | - | - |
| 1777550525 | 3.89° C | 87% | 0 hPa | 0 mm | - | - | - |
| 1777549926 | 3.33° C | 88% | 0 hPa | 0 mm | - | - | - |
| 1777549326 | 2.78° C | 88% | 0 hPa | 0 mm | - | - | - |
| 1777548726 | 2.22° C | 90% | 0 hPa | 0 mm | - | - | - |
| 1777548126 | 2.22° C | 89% | 0 hPa | 0 mm | - | - | - |
| 1777547526 | 2.78° C | 87% | 0 hPa | 0 mm | - | - | - |
| 1777546926 | 2.78° C | 87% | 0 hPa | 0 mm | - | - | - |
| 1777546326 | 2.78° C | 86% | 0 hPa | 0 mm | - | - | - |
| 1777545726 | 2.78° C | 86% | 0 hPa | 0 mm | - | - | - |
| 1777545126 | 2.78° C | 85% | 0 hPa | 0 mm | - | - | - |
| 1777544526 | 2.78° C | 84% | 0 hPa | 0 mm | - | - | - |
| 1777543926 | 2.78° C | 82% | 0 hPa | 0 mm | - | - | - |
| 1777543326 | 2.78° C | 78% | 0 hPa | 0 mm | - | - | - |
| 1777542726 | 2.78° C | 77% | 0 hPa | 0 mm | - | - | - |
| 1777542126 | 3.33° C | 77% | 0 hPa | 0 mm | - | - | - |
| 1777541526 | 3.33° C | 75% | 0 hPa | 0 mm | - | - | - |
| 1777540926 | 3.33° C | 72% | 0 hPa | 0 mm | - | - | - |
| 1777540326 | 2.78° C | 74% | 0 hPa | 0 mm | - | - | - |
| 1777539726 | 3.33° C | 73% | 0 hPa | 0 mm | - | - | - |
* Rain latest hour (hover to see other rain measurements)
** Current wind speed in m/s (hover to see current wind gust speed)